< Cyclone 197609 1976 Season Cyclone 197611 >
Cyclone 197610 (WALLY)
General InformationTrack Information on Google Maps || ResourceGoogle EarthGE AnimationAtom FeedGeoJSON
Detalied Best Track (Time Zone = UTC)
Year Month Day Hour Lat. Long. Pressure (hPa) Wind (kt) Class Image Chart
1976 2 22 16 -16.2 125.0 999 0 0 -- --
1976 2 22 19 -16.3 124.5 997 0 0 -- --
1976 2 22 22 -16.3 123.6 997 0 0 -- --
1976 2 23 01 -16.2 122.8 997 0 0 -- --
1976 2 23 04 -16.4 122.7 997 0 0 -- --
1976 2 23 07 -16.8 122.2 996 0 0 -- --
1976 2 23 10 -16.8 121.8 995 0 0 -- --
1976 2 23 13 -16.7 121.4 995 0 0 -- --
1976 2 23 16 -16.6 121.0 995 0 0 -- --
1976 2 23 19 -16.6 120.5 993 0 0 -- --
1976 2 23 22 -16.7 120.0 993 0 0 -- --
1976 2 24 01 -17.0 119.4 989 0 0 -- --
1976 2 24 04 -17.2 118.9 988 0 0 -- --
1976 2 24 07 -17.4 118.3 986 0 0 -- --
1976 2 24 10 -17.6 117.8 984 0 0 -- --
1976 2 24 13 -17.9 117.2 983 0 0 -- --
1976 2 24 16 -18.1 116.6 982 0 0 -- --
1976 2 24 19 -18.4 116.0 981 0 0 -- --
1976 2 24 22 -18.6 115.5 981 0 0 -- --
1976 2 25 01 -18.9 115.0 981 0 0 -- --
1976 2 25 04 -19.2 114.4 980 0 0 -- --
1976 2 25 07 -19.6 114.0 979 0 0 -- --
1976 2 25 10 -20.1 113.7 978 0 0 -- --
1976 2 25 13 -20.6 113.5 977 0 0 -- --
1976 2 25 16 -21.1 113.5 976 0 0 -- --
1976 2 25 19 -21.6 112.9 975 0 0 -- --
1976 2 25 22 -22.1 112.6 974 0 0 -- --
1976 2 26 01 -22.7 112.3 973 0 0 -- --
1976 2 26 04 -23.2 112.4 974 0 0 -- --
1976 2 26 07 -23.7 112.5 974 0 0 -- --
1976 2 26 10 -24.3 112.6 975 0 0 -- --
1976 2 26 13 -24.7 112.7 977 0 0 -- --
1976 2 26 16 -25.1 112.7 978 0 0 -- --
1976 2 26 17 -25.2 112.7 978.5 0 0 -- --
1976 2 26 19 -25.7 112.8 979 0 0 -- --
1976 2 26 22 -26.3 113.0 980 0 0 -- --
1976 2 27 01 -26.8 113.5 981 0 0 -- --
1976 2 27 04 -27.8 113.6 983 0 0 -- --
1976 2 27 07 -28.6 114.0 985 0 0 -- --
1976 2 27 10 -29.4 115.1 988 0 0 -- --
1976 2 27 13 -30.0 116.0 996 0 0 -- --
1976 2 27 16 -30.4 116.6 1002 0 0 -- --
< Cyclone 197609 1976 Season Cyclone 197611 >

Help